sensor_id;sensor_type;location;lat;lon;timestamp;pressure;altitude;pressure_sealevel;temperature;humidity
44044;BME280;29709;52.396;16.796;2023-02-03T00:01:45;102360.23;;;0.94;76.81
44044;BME280;29709;52.396;16.796;2023-02-03T00:05:24;102354.67;;;0.97;76.63
44044;BME280;29709;52.396;16.796;2023-02-03T00:08:32;102350.87;;;1.01;76.75
44044;BME280;29709;52.396;16.796;2023-02-03T00:11:42;102357.91;;;1.05;76.61
44044;BME280;29709;52.396;16.796;2023-02-03T00:14:53;102347.89;;;1.07;76.66
44044;BME280;29709;52.396;16.796;2023-02-03T00:18:03;102351.48;;;1.08;76.75
44044;BME280;29709;52.396;16.796;2023-02-03T00:21:42;102330.70;;;1.08;77.05
44044;BME280;29709;52.396;16.796;2023-02-03T00:24:49;102335.69;;;1.18;77.14
44044;BME280;29709;52.396;16.796;2023-02-03T00:28:00;102331.87;;;1.22;76.91
44044;BME280;29709;52.396;16.796;2023-02-03T00:31:20;102328.98;;;1.26;76.88
44044;BME280;29709;52.396;16.796;2023-02-03T00:34:28;102314.41;;;1.29;76.75
44044;BME280;29709;52.396;16.796;2023-02-03T00:37:59;102312.85;;;1.23;76.58
44044;BME280;29709;52.396;16.796;2023-02-03T00:41:07;102316.50;;;1.22;76.86
44044;BME280;29709;52.396;16.796;2023-02-03T00:44:17;102310.14;;;1.23;76.88
44044;BME280;29709;52.396;16.796;2023-02-03T00:47:27;102312.73;;;1.26;76.88
44044;BME280;29709;52.396;16.796;2023-02-03T00:50:38;102293.62;;;1.29;77.03
44044;BME280;29709;52.396;16.796;2023-02-03T00:54:17;102281.91;;;1.29;76.62
44044;BME280;29709;52.396;16.796;2023-02-03T00:57:24;102268.52;;;1.26;76.69
44044;BME280;29709;52.396;16.796;2023-02-03T01:00:35;102265.66;;;1.29;76.74
44044;BME280;29709;52.396;16.796;2023-02-03T01:03:45;102262.95;;;1.29;76.82
44044;BME280;29709;52.396;16.796;2023-02-03T01:06:55;102260.31;;;1.27;76.87
44044;BME280;29709;52.396;16.796;2023-02-03T01:10:37;102244.14;;;1.26;77.04
44044;BME280;29709;52.396;16.796;2023-02-03T01:13:42;102233.36;;;1.24;76.43
44044;BME280;29709;52.396;16.796;2023-02-03T01:16:52;102211.20;;;1.16;76.64
44044;BME280;29709;52.396;16.796;2023-02-03T01:20:03;102209.66;;;1.10;76.87
44044;BME280;29709;52.396;16.796;2023-02-03T01:23:13;102197.30;;;1.05;76.92
44044;BME280;29709;52.396;16.796;2023-02-03T01:26:52;102190.41;;;0.98;76.91
44044;BME280;29709;52.396;16.796;2023-02-03T01:29:59;102187.12;;;0.91;77.04
44044;BME280;29709;52.396;16.796;2023-02-03T01:33:10;102185.71;;;0.82;77.29
44044;BME280;29709;52.396;16.796;2023-02-03T01:36:22;102178.70;;;0.78;77.43
44044;BME280;29709;52.396;16.796;2023-02-03T01:39:30;102188.04;;;0.71;77.60
44044;BME280;29709;52.396;16.796;2023-02-03T01:43:10;102184.88;;;0.62;78.02
44044;BME280;29709;52.396;16.796;2023-02-03T01:49:35;102204.38;;;0.49;78.72
44044;BME280;29709;52.396;16.796;2023-02-03T01:52:41;102211.55;;;0.50;78.97
44044;BME280;29709;52.396;16.796;2023-02-03T01:55:48;102197.15;;;0.50;78.95
44044;BME280;29709;52.396;16.796;2023-02-03T01:59:29;102192.76;;;0.47;79.31
44044;BME280;29709;52.396;16.796;2023-02-03T02:02:35;102195.32;;;0.50;79.34
44044;BME280;29709;52.396;16.796;2023-02-03T02:05:58;102177.41;;;0.48;79.42
44044;BME280;29709;52.396;16.796;2023-02-03T02:09:04;102182.74;;;0.49;79.71
44044;BME280;29709;52.396;16.796;2023-02-03T02:12:10;102168.20;;;0.52;79.73
44044;BME280;29709;52.396;16.796;2023-02-03T02:15:53;102151.96;;;0.52;79.73
44044;BME280;29709;52.396;16.796;2023-02-03T02:29:19;102117.55;;;0.55;80.08
44044;BME280;29709;52.396;16.796;2023-02-03T02:39:06;102075.14;;;0.56;80.14
44044;BME280;29709;52.396;16.796;2023-02-03T02:42:50;102066.23;;;0.54;80.37
44044;BME280;29709;52.396;16.796;2023-02-03T02:45:55;102066.23;;;0.54;80.37
44044;BME280;29709;52.396;16.796;2023-02-03T02:49:06;102066.23;;;0.54;80.02
44044;BME280;29709;52.396;16.796;2023-02-03T02:52:14;102053.42;;;0.57;80.47
44044;BME280;29709;52.396;16.796;2023-02-03T02:55:23;102056.80;;;0.63;80.57
44044;BME280;29709;52.396;16.796;2023-02-03T02:58:57;102060.31;;;0.65;80.54
44044;BME280;29709;52.396;16.796;2023-02-03T03:02:01;102065.32;;;0.72;80.46
44044;BME280;29709;52.396;16.796;2023-02-03T03:05:08;102056.91;;;0.78;80.27
44044;BME280;29709;52.396;16.796;2023-02-03T03:08:13;102052.30;;;0.80;80.14
44044;BME280;29709;52.396;16.796;2023-02-03T03:11:17;102038.40;;;0.88;80.23
44044;BME280;29709;52.396;16.796;2023-02-03T03:14:25;102027.50;;;0.90;80.28
44044;BME280;29709;52.396;16.796;2023-02-03T03:17:33;102019.16;;;0.94;80.23
44044;BME280;29709;52.396;16.796;2023-02-03T03:21:06;102015.55;;;0.94;80.21
44044;BME280;29709;52.396;16.796;2023-02-03T03:24:14;102012.63;;;0.98;79.93
44044;BME280;29709;52.396;16.796;2023-02-03T03:27:23;102004.42;;;1.00;79.79
44044;BME280;29709;52.396;16.796;2023-02-03T03:30:32;102004.59;;;0.97;79.81
44044;BME280;29709;52.396;16.796;2023-02-03T03:33:36;101995.02;;;0.90;79.74
44044;BME280;29709;52.396;16.796;2023-02-03T03:36:47;102000.59;;;0.86;79.87
44044;BME280;29709;52.396;16.796;2023-02-03T03:43:39;101983.61;;;0.83;79.97
44044;BME280;29709;52.396;16.796;2023-02-03T03:46:55;101983.56;;;0.84;80.12
44044;BME280;29709;52.396;16.796;2023-02-03T03:50:01;101958.32;;;0.84;79.85
44044;BME280;29709;52.396;16.796;2023-02-03T03:53:06;101947.63;;;0.81;80.12
44044;BME280;29709;52.396;16.796;2023-02-03T03:59:55;101936.98;;;0.78;79.85
44044;BME280;29709;52.396;16.796;2023-02-03T04:03:04;101935.14;;;0.78;80.31
44044;BME280;29709;52.396;16.796;2023-02-03T04:06:09;101917.87;;;0.81;79.93
44044;BME280;29709;52.396;16.796;2023-02-03T04:09:19;101923.85;;;0.88;79.98
44044;BME280;29709;52.396;16.796;2023-02-03T04:12:58;101905.95;;;0.85;80.01
44044;BME280;29709;52.396;16.796;2023-02-03T04:16:05;101908.56;;;0.86;80.29
44044;BME280;29709;52.396;16.796;2023-02-03T04:19:15;101912.63;;;0.95;79.98
44044;BME280;29709;52.396;16.796;2023-02-03T04:22:26;101906.80;;;1.03;80.09
44044;BME280;29709;52.396;16.796;2023-02-03T04:25:36;101898.37;;;1.09;79.79
44044;BME280;29709;52.396;16.796;2023-02-03T04:29:15;101896.23;;;1.15;79.84
44044;BME280;29709;52.396;16.796;2023-02-03T04:32:22;101886.01;;;1.21;79.35
44044;BME280;29709;52.396;16.796;2023-02-03T04:35:33;101872.64;;;1.18;79.11
44044;BME280;29709;52.396;16.796;2023-02-03T04:38:43;101861.08;;;1.14;79.26
44044;BME280;29709;52.396;16.796;2023-02-03T04:41:54;101856.40;;;1.18;79.36
44044;BME280;29709;52.396;16.796;2023-02-03T04:45:33;101851.07;;;1.16;79.26
44044;BME280;29709;52.396;16.796;2023-02-03T04:48:40;101845.65;;;1.16;79.45
44044;BME280;29709;52.396;16.796;2023-02-03T04:51:50;101844.78;;;1.15;79.30
44044;BME280;29709;52.396;16.796;2023-02-03T04:55:01;101836.89;;;1.11;79.42
44044;BME280;29709;52.396;16.796;2023-02-03T04:58:11;101825.88;;;1.14;79.71
44044;BME280;29709;52.396;16.796;2023-02-03T05:01:50;101816.75;;;1.17;79.85
44044;BME280;29709;52.396;16.796;2023-02-03T05:04:57;101814.04;;;1.17;79.86
44044;BME280;29709;52.396;16.796;2023-02-03T05:08:08;101808.70;;;1.15;80.17
44044;BME280;29709;52.396;16.796;2023-02-03T05:11:19;101804.87;;;1.19;80.50
44044;BME280;29709;52.396;16.796;2023-02-03T05:14:29;101801.02;;;1.23;80.60
44044;BME280;29709;52.396;16.796;2023-02-03T05:18:08;101794.59;;;1.26;80.93
44044;BME280;29709;52.396;16.796;2023-02-03T05:21:15;101792.80;;;1.25;81.42
44044;BME280;29709;52.396;16.796;2023-02-03T05:24:25;101771.77;;;1.30;81.60
44044;BME280;29709;52.396;16.796;2023-02-03T05:27:40;101757.09;;;1.34;82.05
44044;BME280;29709;52.396;16.796;2023-02-03T05:30:46;101744.96;;;1.41;82.05
44044;BME280;29709;52.396;16.796;2023-02-03T05:34:25;101752.66;;;1.49;82.40
44044;BME280;29709;52.396;16.796;2023-02-03T05:37:32;101740.08;;;1.48;82.50
44044;BME280;29709;52.396;16.796;2023-02-03T05:40:42;101734.48;;;1.51;82.81
44044;BME280;29709;52.396;16.796;2023-02-03T05:43:57;101714.55;;;1.52;82.87
44044;BME280;29709;52.396;16.796;2023-02-03T05:47:03;101712.80;;;1.51;82.89
44044;BME280;29709;52.396;16.796;2023-02-03T05:50:42;101717.45;;;1.49;83.41
44044;BME280;29709;52.396;16.796;2023-02-03T05:53:50;101701.29;;;1.47;83.77
44044;BME280;29709;52.396;16.796;2023-02-03T05:57:00;101705.64;;;1.50;83.74
44044;BME280;29709;52.396;16.796;2023-02-03T06:00:12;101702.25;;;1.46;83.94
44044;BME280;29709;52.396;16.796;2023-02-03T06:03:21;101700.23;;;1.50;84.26
44044;BME280;29709;52.396;16.796;2023-02-03T06:07:00;101689.11;;;1.54;84.53
44044;BME280;29709;52.396;16.796;2023-02-03T06:10:08;101683.26;;;1.62;84.55
44044;BME280;29709;52.396;16.796;2023-02-03T06:13:18;101692.06;;;1.65;84.83
44044;BME280;29709;52.396;16.796;2023-02-03T06:16:28;101679.05;;;1.72;84.44
44044;BME280;29709;52.396;16.796;2023-02-03T06:19:39;101666.46;;;1.71;84.47
44044;BME280;29709;52.396;16.796;2023-02-03T06:23:18;101656.49;;;1.71;84.57
44044;BME280;29709;52.396;16.796;2023-02-03T06:26:25;101644.69;;;1.72;84.64
44044;BME280;29709;52.396;16.796;2023-02-03T06:29:36;101628.43;;;1.72;84.96
44044;BME280;29709;52.396;16.796;2023-02-03T06:32:47;101622.14;;;1.72;85.11
44044;BME280;29709;52.396;16.796;2023-02-03T06:35:57;101614.30;;;1.67;85.32
44044;BME280;29709;52.396;16.796;2023-02-03T06:39:35;101608.26;;;1.62;85.84
44044;BME280;29709;52.396;16.796;2023-02-03T06:42:46;101601.62;;;1.68;86.13
44044;BME280;29709;52.396;16.796;2023-02-03T06:45:53;101575.87;;;1.75;86.01
44044;BME280;29709;52.396;16.796;2023-02-03T06:49:03;101572.29;;;1.74;86.07
44044;BME280;29709;52.396;16.796;2023-02-03T06:52:14;101563.39;;;1.72;86.41
44044;BME280;29709;52.396;16.796;2023-02-03T06:55:53;101557.10;;;1.72;86.63
44044;BME280;29709;52.396;16.796;2023-02-03T06:59:00;101543.55;;;1.72;87.12
44044;BME280;29709;52.396;16.796;2023-02-03T07:02:11;101526.12;;;1.76;87.14
44044;BME280;29709;52.396;16.796;2023-02-03T07:05:21;101510.66;;;1.78;87.34
44044;BME280;29709;52.396;16.796;2023-02-03T07:08:31;101500.49;;;1.82;87.64
44044;BME280;29709;52.396;16.796;2023-02-03T07:12:10;101495.95;;;1.82;87.52
44044;BME280;29709;52.396;16.796;2023-02-03T07:15:18;101488.59;;;1.84;87.88
44044;BME280;29709;52.396;16.796;2023-02-03T07:18:28;101470.98;;;1.91;88.02
44044;BME280;29709;52.396;16.796;2023-02-03T07:21:39;101456.83;;;1.86;88.13
44044;BME280;29709;52.396;16.796;2023-02-03T07:24:49;101445.98;;;1.86;88.06
44044;BME280;29709;52.396;16.796;2023-02-03T07:28:28;101424.30;;;1.86;88.41
44044;BME280;29709;52.396;16.796;2023-02-03T07:31:35;101419.85;;;1.85;88.46
44044;BME280;29709;52.396;16.796;2023-02-03T07:34:46;101414.93;;;1.92;88.49
44044;BME280;29709;52.396;16.796;2023-02-03T07:37:56;101414.05;;;1.91;88.52
44044;BME280;29709;52.396;16.796;2023-02-03T07:41:07;101402.44;;;1.89;88.72
44044;BME280;29709;52.396;16.796;2023-02-03T07:44:45;101390.43;;;1.93;88.86
44044;BME280;29709;52.396;16.796;2023-02-03T07:47:53;101384.69;;;1.98;88.75
44044;BME280;29709;52.396;16.796;2023-02-03T07:51:03;101369.50;;;1.95;88.96
44044;BME280;29709;52.396;16.796;2023-02-03T07:54:14;101354.80;;;1.99;88.57
44044;BME280;29709;52.396;16.796;2023-02-03T07:57:24;101343.58;;;1.91;88.90
44044;BME280;29709;52.396;16.796;2023-02-03T08:01:09;101340.98;;;1.90;88.94
44044;BME280;29709;52.396;16.796;2023-02-03T08:04:13;101316.48;;;1.91;89.02
44044;BME280;29709;52.396;16.796;2023-02-03T08:07:21;101316.37;;;1.93;89.21
44044;BME280;29709;52.396;16.796;2023-02-03T08:10:31;101306.28;;;1.95;89.15
44044;BME280;29709;52.396;16.796;2023-02-03T08:13:41;101299.45;;;1.89;89.20
44044;BME280;29709;52.396;16.796;2023-02-03T08:17:20;101290.45;;;1.89;89.35
44044;BME280;29709;52.396;16.796;2023-02-03T08:20:28;101281.52;;;1.87;89.15
44044;BME280;29709;52.396;16.796;2023-02-03T08:23:38;101278.80;;;1.87;89.43
44044;BME280;29709;52.396;16.796;2023-02-03T08:26:48;101256.08;;;1.89;89.51
44044;BME280;29709;52.396;16.796;2023-02-03T08:29:59;101253.26;;;1.91;89.46
44044;BME280;29709;52.396;16.796;2023-02-03T08:33:38;101243.29;;;1.91;89.64
44044;BME280;29709;52.396;16.796;2023-02-03T08:36:45;101225.66;;;1.98;89.62
44044;BME280;29709;52.396;16.796;2023-02-03T08:39:55;101216.00;;;2.07;89.43
44044;BME280;29709;52.396;16.796;2023-02-03T08:43:06;101200.82;;;2.05;89.33
44044;BME280;29709;52.396;16.796;2023-02-03T08:46:16;101187.48;;;2.01;89.00
44044;BME280;29709;52.396;16.796;2023-02-03T08:49:55;101183.91;;;2.01;89.37
44044;BME280;29709;52.396;16.796;2023-02-03T08:53:02;101169.48;;;2.00;89.42
44044;BME280;29709;52.396;16.796;2023-02-03T08:56:13;101165.59;;;2.05;89.73
44044;BME280;29709;52.396;16.796;2023-02-03T08:59:23;101172.62;;;2.07;89.62
44044;BME280;29709;52.396;16.796;2023-02-03T09:02:34;101165.70;;;2.16;89.42
44044;BME280;29709;52.396;16.796;2023-02-03T09:06:12;101155.48;;;2.07;89.27
44044;BME280;29709;52.396;16.796;2023-02-03T09:09:21;101142.15;;;2.03;89.63
44044;BME280;29709;52.396;16.796;2023-02-03T09:12:30;101146.38;;;2.08;89.58
44044;BME280;29709;52.396;16.796;2023-02-03T09:15:41;101124.28;;;2.14;89.50
44044;BME280;29709;52.396;16.796;2023-02-03T09:18:51;101106.27;;;2.13;89.47
44044;BME280;29709;52.396;16.796;2023-02-03T09:22:30;101081.76;;;2.14;89.92
44044;BME280;29709;52.396;16.796;2023-02-03T09:25:37;101080.14;;;2.12;89.79
44044;BME280;29709;52.396;16.796;2023-02-03T09:28:48;101061.57;;;2.06;89.84
44044;BME280;29709;52.396;16.796;2023-02-03T09:31:58;101062.33;;;2.08;90.18
44044;BME280;29709;52.396;16.796;2023-02-03T09:35:10;101040.55;;;2.09;90.19
44044;BME280;29709;52.396;16.796;2023-02-03T09:38:47;101030.24;;;2.14;90.33
44044;BME280;29709;52.396;16.796;2023-02-03T09:48:31;100991.74;;;2.22;90.44
44044;BME280;29709;52.396;16.796;2023-02-03T09:58:38;100956.02;;;2.41;90.69
44044;BME280;29709;52.396;16.796;2023-02-03T10:01:58;100945.36;;;2.50;90.27
44044;BME280;29709;52.396;16.796;2023-02-03T10:18:56;100859.98;;;2.43;91.26
44044;BME280;29709;52.396;16.796;2023-02-03T10:22:03;100844.99;;;2.50;91.15
44044;BME280;29709;52.396;16.796;2023-02-03T10:25:18;100825.27;;;2.59;91.36
44044;BME280;29709;52.396;16.796;2023-02-03T10:28:30;100813.84;;;2.67;90.90
44044;BME280;29709;52.396;16.796;2023-02-03T10:31:35;100804.84;;;2.67;90.39
44044;BME280;29709;52.396;16.796;2023-02-03T10:34:43;100784.11;;;2.66;90.66
44044;BME280;29709;52.396;16.796;2023-02-03T10:41:30;100759.98;;;2.74;91.11
44044;BME280;29709;52.396;16.796;2023-02-03T10:44:45;100746.77;;;2.80;90.93
44044;BME280;29709;52.396;16.796;2023-02-03T10:47:55;100736.30;;;2.87;90.90
44044;BME280;29709;52.396;16.796;2023-02-03T10:51:01;100727.55;;;2.83;90.85
44044;BME280;29709;52.396;16.796;2023-02-03T10:54:32;100715.33;;;2.89;91.35
44044;BME280;29709;52.396;16.796;2023-02-03T10:57:37;100699.30;;;2.97;91.63
44044;BME280;29709;52.396;16.796;2023-02-03T11:00:42;100693.01;;;3.08;91.46
44044;BME280;29709;52.396;16.796;2023-02-03T11:07:04;100676.71;;;3.19;92.06
44044;BME280;29709;52.396;16.796;2023-02-03T11:17:08;100642.13;;;3.32;92.60
44044;BME280;29709;52.396;16.796;2023-02-03T11:20:16;100634.34;;;3.39;92.61
44044;BME280;29709;52.396;16.796;2023-02-03T11:23:19;100620.27;;;3.45;92.56
44044;BME280;29709;52.396;16.796;2023-02-03T11:26:29;100614.57;;;3.48;92.41
44044;BME280;29709;52.396;16.796;2023-02-03T11:29:35;100604.79;;;3.57;92.52
44044;BME280;29709;52.396;16.796;2023-02-03T11:33:15;100598.59;;;3.66;92.45
44044;BME280;29709;52.396;16.796;2023-02-03T11:36:20;100595.70;;;3.79;92.37
44044;BME280;29709;52.396;16.796;2023-02-03T11:39:28;100583.42;;;3.84;92.06
44044;BME280;29709;52.396;16.796;2023-02-03T11:42:39;100578.34;;;3.91;92.06
44044;BME280;29709;52.396;16.796;2023-02-03T11:45:49;100579.41;;;3.99;92.18
44044;BME280;29709;52.396;16.796;2023-02-03T11:49:38;100570.61;;;4.07;92.10
44044;BME280;29709;52.396;16.796;2023-02-03T12:26:19;100531.91;;;5.74;93.58
44044;BME280;29709;52.396;16.796;2023-02-03T12:36:27;100493.84;;;6.01;93.68
44044;BME280;29709;52.396;16.796;2023-02-03T12:46:31;100494.61;;;6.41;93.50
44044;BME280;29709;52.396;16.796;2023-02-03T12:49:44;100499.33;;;6.48;93.33
44044;BME280;29709;52.396;16.796;2023-02-03T12:52:55;100511.66;;;6.52;93.27
44044;BME280;29709;52.396;16.796;2023-02-03T12:56:10;100517.40;;;6.59;93.22
44044;BME280;29709;52.396;16.796;2023-02-03T12:59:24;100530.43;;;6.65;93.17
44044;BME280;29709;52.396;16.796;2023-02-03T13:03:06;100527.42;;;6.68;93.00
44044;BME280;29709;52.396;16.796;2023-02-03T13:06:24;100531.71;;;6.71;92.45
44044;BME280;29709;52.396;16.796;2023-02-03T13:09:40;100557.01;;;6.73;91.87
44044;BME280;29709;52.396;16.796;2023-02-03T13:12:51;100550.56;;;6.64;90.08
44044;BME280;29709;52.396;16.796;2023-02-03T13:15:59;100561.24;;;6.57;89.78
44044;BME280;29709;52.396;16.796;2023-02-03T13:22:45;100547.63;;;6.38;89.59
44044;BME280;29709;52.396;16.796;2023-02-03T13:29:14;100556.41;;;6.32;88.69
44044;BME280;29709;52.396;16.796;2023-02-03T13:35:50;100575.95;;;6.37;88.85
44044;BME280;29709;52.396;16.796;2023-02-03T13:48:35;100617.45;;;6.41;87.11
44044;BME280;29709;52.396;16.796;2023-02-03T13:53:41;100620.91;;;6.23;86.23
44044;BME280;29709;52.396;16.796;2023-02-03T13:56:56;100618.48;;;6.20;84.48
44044;BME280;29709;52.396;16.796;2023-02-03T14:00:56;100622.36;;;6.18;83.81
44044;BME280;29709;52.396;16.796;2023-02-03T14:03:21;100620.34;;;6.00;83.15
44044;BME280;29709;52.396;16.796;2023-02-03T14:09:47;100605.23;;;5.77;83.36
44044;BME280;29709;52.396;16.796;2023-02-03T14:13:20;100610.69;;;5.77;83.80
44044;BME280;29709;52.396;16.796;2023-02-03T14:16:24;100611.26;;;5.80;83.48
44044;BME280;29709;52.396;16.796;2023-02-03T14:22:41;100623.37;;;5.97;84.04
44044;BME280;29709;52.396;16.796;2023-02-03T14:28:58;100613.62;;;6.04;84.28
44044;BME280;29709;52.396;16.796;2023-02-03T14:32:04;100618.48;;;6.11;84.66
44044;BME280;29709;52.396;16.796;2023-02-03T14:35:35;100621.92;;;6.13;84.35
44044;BME280;29709;52.396;16.796;2023-02-03T14:38:42;100621.35;;;6.19;84.12
44044;BME280;29709;52.396;16.796;2023-02-03T14:48:28;100604.27;;;6.17;84.42
44044;BME280;29709;52.396;16.796;2023-02-03T14:58:31;100630.25;;;6.11;84.42
44044;BME280;29709;52.396;16.796;2023-02-03T15:04:52;100649.35;;;6.21;83.91
44044;BME280;29709;52.396;16.796;2023-02-03T15:08:32;100660.12;;;6.22;83.80
44044;BME280;29709;52.396;16.796;2023-02-03T15:11:43;100659.41;;;6.20;83.37
44044;BME280;29709;52.396;16.796;2023-02-03T15:14:46;100670.77;;;6.25;83.83
44044;BME280;29709;52.396;16.796;2023-02-03T15:17:58;100666.74;;;6.29;83.36
44044;BME280;29709;52.396;16.796;2023-02-03T15:21:02;100657.84;;;6.37;83.12
44044;BME280;29709;52.396;16.796;2023-02-03T15:24:14;100674.33;;;6.35;82.28
44044;BME280;29709;52.396;16.796;2023-02-03T15:27:45;100682.26;;;6.39;82.45
44044;BME280;29709;52.396;16.796;2023-02-03T15:30:54;100691.71;;;6.44;82.52
44044;BME280;29709;52.396;16.796;2023-02-03T15:34:08;100686.99;;;6.46;82.81
44044;BME280;29709;52.396;16.796;2023-02-03T15:37:22;100704.51;;;6.44;82.96
44044;BME280;29709;52.396;16.796;2023-02-03T15:40:44;100725.22;;;6.46;82.49
44044;BME280;29709;52.396;16.796;2023-02-03T15:44:37;100748.48;;;6.31;83.34
44044;BME280;29709;52.396;16.796;2023-02-03T15:47:38;100735.96;;;6.19;83.82
44044;BME280;29709;52.396;16.796;2023-02-03T15:50:55;100730.05;;;6.14;84.09
44044;BME280;29709;52.396;16.796;2023-02-03T15:54:16;100724.18;;;6.08;84.40
44044;BME280;29709;52.396;16.796;2023-02-03T15:57:26;100717.98;;;5.97;84.64
44044;BME280;29709;52.396;16.796;2023-02-03T16:00:59;100718.79;;;5.88;84.92
44044;BME280;29709;52.396;16.796;2023-02-03T16:04:08;100719.94;;;5.85;84.93
44044;BME280;29709;52.396;16.796;2023-02-03T16:07:24;100717.37;;;5.84;85.85
44044;BME280;29709;52.396;16.796;2023-02-03T16:10:31;100723.92;;;5.81;85.80
44044;BME280;29709;52.396;16.796;2023-02-03T16:13:34;100715.50;;;5.84;85.95
44044;BME280;29709;52.396;16.796;2023-02-03T16:16:48;100716.35;;;5.85;86.43
44044;BME280;29709;52.396;16.796;2023-02-03T16:20:25;100719.09;;;5.85;86.36
44044;BME280;29709;52.396;16.796;2023-02-03T16:23:34;100720.80;;;5.86;86.56
44044;BME280;29709;52.396;16.796;2023-02-03T16:26:38;100717.07;;;5.87;86.63
44044;BME280;29709;52.396;16.796;2023-02-03T16:29:41;100717.68;;;5.90;86.53
44044;BME280;29709;52.396;16.796;2023-02-03T16:36:22;100730.56;;;5.88;86.77
44044;BME280;29709;52.396;16.796;2023-02-03T16:39:37;100750.66;;;5.87;87.05
44044;BME280;29709;52.396;16.796;2023-02-03T16:42:52;100734.29;;;5.87;87.19
44044;BME280;29709;52.396;16.796;2023-02-03T16:46:10;100746.22;;;5.86;87.73
44044;BME280;29709;52.396;16.796;2023-02-03T16:49:26;100750.41;;;5.90;87.59
44044;BME280;29709;52.396;16.796;2023-02-03T16:52:41;100749.66;;;5.88;87.62
44044;BME280;29709;52.396;16.796;2023-02-03T16:56:13;100763.91;;;5.92;87.67
44044;BME280;29709;52.396;16.796;2023-02-03T16:59:20;100752.84;;;5.93;87.80
44044;BME280;29709;52.396;16.796;2023-02-03T17:02:23;100750.01;;;5.95;87.70
44044;BME280;29709;52.396;16.796;2023-02-03T17:05:27;100738.95;;;5.96;87.68
44044;BME280;29709;52.396;16.796;2023-02-03T17:08:30;100764.76;;;5.92;87.65
44044;BME280;29709;52.396;16.796;2023-02-03T17:11:33;100758.05;;;5.96;87.82
44044;BME280;29709;52.396;16.796;2023-02-03T17:14:37;100758.19;;;5.95;87.19
44044;BME280;29709;52.396;16.796;2023-02-03T17:17:40;100762.64;;;5.96;87.39
44044;BME280;29709;52.396;16.796;2023-02-03T17:20:44;100766.77;;;5.90;88.06
44044;BME280;29709;52.396;16.796;2023-02-03T17:23:47;100761.31;;;5.90;87.99
44044;BME280;29709;52.396;16.796;2023-02-03T17:26:51;100757.04;;;5.97;87.64
44044;BME280;29709;52.396;16.796;2023-02-03T17:30:21;100774.34;;;5.87;87.74
44044;BME280;29709;52.396;16.796;2023-02-03T17:33:26;100771.62;;;5.87;88.32
44044;BME280;29709;52.396;16.796;2023-02-03T17:36:29;100778.15;;;5.95;87.87
44044;BME280;29709;52.396;16.796;2023-02-03T17:39:32;100782.31;;;5.99;87.59
44044;BME280;29709;52.396;16.796;2023-02-03T17:42:36;100795.63;;;5.93;87.92
44044;BME280;29709;52.396;16.796;2023-02-03T17:45:40;100791.43;;;5.89;87.92
44044;BME280;29709;52.396;16.796;2023-02-03T17:48:44;100798.03;;;5.86;88.28
44044;BME280;29709;52.396;16.796;2023-02-03T17:51:51;100799.77;;;5.87;88.15
44044;BME280;29709;52.396;16.796;2023-02-03T17:55:31;100797.17;;;5.86;88.34
44044;BME280;29709;52.396;16.796;2023-02-03T17:58:37;100810.48;;;5.79;88.56
44044;BME280;29709;52.396;16.796;2023-02-03T18:01:47;100827.32;;;5.84;88.61
44044;BME280;29709;52.396;16.796;2023-02-03T18:04:58;100812.54;;;5.87;88.73
44044;BME280;29709;52.396;16.796;2023-02-03T18:08:08;100822.20;;;5.91;88.53
44044;BME280;29709;52.396;16.796;2023-02-03T18:11:47;100825.62;;;5.93;88.43
44044;BME280;29709;52.396;16.796;2023-02-03T18:14:54;100820.07;;;5.94;88.54
44044;BME280;29709;52.396;16.796;2023-02-03T18:18:05;100817.59;;;5.91;88.67
44044;BME280;29709;52.396;16.796;2023-02-03T18:21:15;100829.04;;;5.85;89.33
44044;BME280;29709;52.396;16.796;2023-02-03T18:24:25;100831.96;;;5.93;89.45
44044;BME280;29709;52.396;16.796;2023-02-03T18:28:04;100821.80;;;5.95;89.37
44044;BME280;29709;52.396;16.796;2023-02-03T18:31:14;100819.07;;;5.95;89.77
44044;BME280;29709;52.396;16.796;2023-02-03T18:34:22;100819.49;;;6.00;89.60
44044;BME280;29709;52.396;16.796;2023-02-03T18:37:32;100830.13;;;6.03;89.65
44044;BME280;29709;52.396;16.796;2023-02-03T18:40:43;100830.88;;;6.05;89.95
44044;BME280;29709;52.396;16.796;2023-02-03T18:44:22;100829.73;;;6.08;89.79
44044;BME280;29709;52.396;16.796;2023-02-03T18:47:29;100839.49;;;6.11;89.73
44044;BME280;29709;52.396;16.796;2023-02-03T18:50:42;100835.76;;;6.12;89.77
44044;BME280;29709;52.396;16.796;2023-02-03T18:53:50;100834.61;;;6.14;89.75
44044;BME280;29709;52.396;16.796;2023-02-03T18:57:00;100832.20;;;6.21;89.52
44044;BME280;29709;52.396;16.796;2023-02-03T19:00:39;100835.65;;;6.23;89.18
44044;BME280;29709;52.396;16.796;2023-02-03T19:03:46;100837.97;;;6.27;88.95
44044;BME280;29709;52.396;16.796;2023-02-03T19:06:56;100841.70;;;6.26;88.89
44044;BME280;29709;52.396;16.796;2023-02-03T19:10:07;100831.51;;;6.28;88.67
44044;BME280;29709;52.396;16.796;2023-02-03T19:13:18;100829.64;;;6.29;88.65
44044;BME280;29709;52.396;16.796;2023-02-03T19:16:56;100822.32;;;6.29;88.70
44044;BME280;29709;52.396;16.796;2023-02-03T19:20:04;100833.23;;;6.29;88.49
44044;BME280;29709;52.396;16.796;2023-02-03T19:23:14;100832.23;;;6.30;88.36
44044;BME280;29709;52.396;16.796;2023-02-03T19:26:24;100826.77;;;6.30;88.21
44044;BME280;29709;52.396;16.796;2023-02-03T19:29:34;100835.39;;;6.26;88.09
44044;BME280;29709;52.396;16.796;2023-02-03T19:33:16;100853.89;;;6.22;88.11
44044;BME280;29709;52.396;16.796;2023-02-03T19:36:21;100847.42;;;6.23;87.97
44044;BME280;29709;52.396;16.796;2023-02-03T19:39:31;100850.01;;;6.25;88.00
44044;BME280;29709;52.396;16.796;2023-02-03T19:42:41;100859.48;;;6.21;88.21